Time;durP1;ratioP1;P1;durP2;ratioP2;P2;SDS_P1;SDS_P2;PMS_P1;PMS_P2;Temp;Humidity;BMP_temperature;BMP_pressure;BME280_temperature;BME280_humidity;BME280_pressure;Samples;Min_cycle;Max_cycle;Signal;HPM_P1;HPM_P2
2022/11/23 00:01:14;;;;;;;15.10;12.57;;;;;;;11.12;83.78;98320.84;5094637;28;20249;-59
2022/11/23 00:03:41;;;;;;;16.57;12.63;;;;;;;11.14;83.94;98336.56;5094998;28;20604;-59
2022/11/23 00:06:08;;;;;;;18.23;13.80;;;;;;;11.04;84.48;98345.88;5092421;28;20196;-59
2022/11/23 00:08:34;;;;;;;16.20;12.53;;;;;;;10.96;84.76;98334.78;5074138;28;20629;-60
2022/11/23 00:11:01;;;;;;;20.00;12.40;;;;;;;11.02;85.21;98341.06;5074235;28;20193;-59
2022/11/23 00:13:29;;;;;;;20.03;13.17;;;;;;;10.96;84.67;98342.75;5074246;28;20225;-59
2022/11/23 00:15:56;;;;;;;16.83;13.47;;;;;;;10.98;85.12;98334.56;5074054;28;20280;-60
2022/11/23 00:18:23;;;;;;;16.10;13.70;;;;;;;10.89;84.46;98336.72;5073916;28;20776;-59
2022/11/23 00:20:50;;;;;;;18.33;13.97;;;;;;;10.73;84.43;98313.44;5074341;28;20241;-60
2022/11/23 00:23:16;;;;;;;17.57;12.83;;;;;;;10.77;84.96;98320.75;5074672;28;20226;-61
2022/11/23 00:25:45;;;;;;;24.30;13.93;;;;;;;10.88;84.51;98324.47;5073851;28;20222;-61
2022/11/23 00:28:12;;;;;;;17.40;13.40;;;;;;;10.88;83.91;98329.78;5074196;28;20220;-61
2022/11/23 00:30:40;;;;;;;25.63;13.57;;;;;;;10.91;84.07;98318.72;5087313;28;20663;-62
2022/11/23 00:33:07;;;;;;;18.97;12.60;;;;;;;10.90;84.33;98311.78;5094970;28;20622;-61
2022/11/23 00:35:34;;;;;;;15.70;12.83;;;;;;;10.82;84.68;98269.59;5094549;28;20232;-62
2022/11/23 00:38:00;;;;;;;20.43;12.87;;;;;;;10.92;84.67;98259.25;5094338;28;20230;-62
2022/11/23 00:40:27;;;;;;;17.07;12.10;;;;;;;11.00;84.26;98291.56;5094158;28;20192;-62
2022/11/23 00:42:54;;;;;;;20.47;13.33;;;;;;;11.01;84.66;98305.69;5094881;28;20191;-61
2022/11/23 00:45:20;;;;;;;16.27;13.10;;;;;;;10.99;85.99;98297.16;5094224;28;20192;-61
2022/11/23 00:47:48;;;;;;;21.73;13.90;;;;;;;11.01;87.23;98284.44;5094053;28;20223;-61
2022/11/23 00:50:16;;;;;;;19.73;14.73;;;;;;;11.03;87.61;98277.06;5094187;28;20188;-59
2022/11/23 00:52:42;;;;;;;21.23;14.33;;;;;;;11.02;88.22;98309.16;5094050;28;20264;-62
2022/11/23 00:55:09;;;;;;;18.77;14.40;;;;;;;10.75;89.97;98298.13;5093252;28;20196;-61
2022/11/23 00:57:36;;;;;;;20.97;14.07;;;;;;;10.73;90.99;98295.69;5093561;28;20201;-61
2022/11/23 01:00:04;;;;;;;22.17;14.97;;;;;;;10.80;91.73;98280.47;5093584;28;20682;-61
2022/11/23 01:02:31;;;;;;;17.17;13.20;;;;;;;10.89;91.82;98268.47;5093793;28;20271;-61
2022/11/23 01:04:59;;;;;;;20.77;15.20;;;;;;;10.95;91.88;98266.75;5093787;28;20312;-61
2022/11/23 01:07:25;;;;;;;17.10;13.73;;;;;;;11.02;92.28;98259.47;5080007;28;20213;-61
2022/11/23 01:09:52;;;;;;;17.10;13.47;;;;;;;11.09;92.08;98252.22;5073534;28;20197;-61
2022/11/23 01:12:19;;;;;;;19.93;13.83;;;;;;;11.11;92.06;98239.50;5078472;28;20249;-61
2022/11/23 01:14:45;;;;;;;19.33;14.33;;;;;;;11.18;92.13;98237.53;5093890;28;20252;-61
2022/11/23 01:17:12;;;;;;;20.33;13.73;;;;;;;11.25;91.63;98238.25;5093187;28;20276;-62
2022/11/23 01:19:39;;;;;;;15.40;13.10;;;;;;;11.27;92.08;98235.38;5093204;28;20193;-62
2022/11/23 01:22:07;;;;;;;15.30;12.90;;;;;;;11.30;93.03;98242.88;5093033;28;20227;-62
2022/11/23 01:24:33;;;;;;;14.67;12.93;;;;;;;11.20;93.75;98230.16;5093696;28;20192;-62
2022/11/23 01:27:00;;;;;;;23.87;18.30;;;;;;;11.09;93.82;98183.13;5093189;28;20191;-62
2022/11/23 01:29:27;;;;;;;21.13;16.37;;;;;;;10.91;94.48;98164.66;5089485;28;20222;-62
2022/11/23 01:31:53;;;;;;;26.57;21.03;;;;;;;10.88;95.72;98149.16;5073003;28;20254;-62
2022/11/23 01:34:20;;;;;;;16.47;10.93;;;;;;;10.82;96.65;98148.22;5072953;28;20253;-62
2022/11/23 01:36:47;;;;;;;14.27;11.73;;;;;;;10.89;97.59;98187.97;5073121;28;20193;-62
2022/11/23 01:39:15;;;;;;;16.10;13.13;;;;;;;10.89;97.94;98219.84;5072483;28;20251;-62
2022/11/23 01:41:44;;;;;;;16.13;12.43;;;;;;;10.72;98.98;98229.50;5072383;28;20656;-62
2022/11/23 01:44:27;;;;;;;15.53;12.47;;;;;;;10.67;99.87;98237.34;5072376;28;20196;-62
2022/11/23 01:46:54;;;;;;;14.50;13.00;;;;;;;10.49;99.26;98224.13;5072791;28;20199;-62
2022/11/23 01:49:22;;;;;;;17.30;14.27;;;;;;;10.49;98.65;98194.94;5072639;28;20276;-62
2022/11/23 01:51:50;;;;;;;15.07;12.97;;;;;;;10.59;98.68;98184.56;5072253;28;20188;-61
2022/11/23 01:54:22;;;;;;;14.97;12.70;;;;;;;10.62;98.69;98170.84;5072390;28;20247;-61
2022/11/23 01:56:53;;;;;;;15.87;12.13;;;;;;;10.62;97.97;98176.97;5072718;28;20250;-61
2022/11/23 01:59:23;;;;;;;14.63;12.70;;;;;;;10.66;97.94;98187.94;5072297;28;20237;-61
2022/11/23 02:01:49;;;;;;;14.97;12.30;;;;;;;10.69;98.41;98214.84;5072099;28;20253;-62
2022/11/23 02:04:22;;;;;;;13.83;12.40;;;;;;;10.72;98.69;98219.72;5072116;28;20656;-62
2022/11/23 02:06:49;;;;;;;13.27;12.07;;;;;;;10.70;98.53;98228.91;5080930;28;20244;-62
2022/11/23 02:09:17;;;;;;;14.43;12.37;;;;;;;10.66;98.68;98230.44;5092520;28;20299;-62
2022/11/23 02:11:45;;;;;;;16.23;12.90;;;;;;;10.60;98.64;98212.75;5092334;28;20644;-62
2022/11/23 02:14:12;;;;;;;15.80;12.83;;;;;;;10.58;99.12;98205.00;5092609;28;20187;-62
2022/11/23 02:16:40;;;;;;;15.10;12.57;;;;;;;10.58;99.62;98201.56;5092780;28;20238;-62
2022/11/23 02:19:14;;;;;;;17.00;13.13;;;;;;;10.54;99.93;98217.09;5092213;28;20763;-61
2022/11/23 02:21:42;;;;;;;19.10;13.90;;;;;;;10.46;99.99;98235.22;5092100;28;20183;-61
2022/11/23 02:24:15;;;;;;;14.50;12.63;;;;;;;10.23;100.00;98235.13;5092468;28;20588;-61
2022/11/23 02:26:44;;;;;;;19.93;13.90;;;;;;;10.13;100.00;98230.34;5092100;28;20183;-62
2022/11/23 02:29:14;;;;;;;16.57;13.30;;;;;;;10.17;100.00;98222.75;5091909;28;20300;-62
2022/11/23 02:31:40;;;;;;;17.00;12.73;;;;;;;10.13;100.00;98210.97;5072496;28;20223;-62
2022/11/23 02:34:07;;;;;;;14.90;13.33;;;;;;;10.13;100.00;98208.31;5071827;28;20191;-62
2022/11/23 02:36:39;;;;;;;15.27;12.93;;;;;;;10.25;100.00;98206.53;5071687;28;20221;-61
2022/11/23 02:39:12;;;;;;;15.33;13.20;;;;;;;10.39;100.00;98197.34;5072338;28;20265;-62
2022/11/23 02:41:41;;;;;;;18.07;13.27;;;;;;;10.50;100.00;98196.56;5071281;28;20184;-62
2022/11/23 02:44:18;;;;;;;13.87;12.53;;;;;;;10.57;100.00;98210.53;5072601;28;20203;-62
2022/11/23 02:46:45;;;;;;;17.43;12.80;;;;;;;10.62;100.00;98198.19;5071602;28;20716;-62
2022/11/23 02:49:12;;;;;;;14.17;12.10;;;;;;;10.61;100.00;98198.41;5072166;28;20215;-62
2022/11/23 02:51:38;;;;;;;13.10;11.80;;;;;;;10.56;99.45;98190.34;5071916;28;20222;-62
2022/11/23 02:54:05;;;;;;;13.03;11.83;;;;;;;10.52;100.00;98170.59;5071938;28;20189;-62
2022/11/23 02:56:32;;;;;;;16.17;12.43;;;;;;;10.62;100.00;98181.47;5071287;28;20684;-62
2022/11/23 02:58:59;;;;;;;13.90;12.20;;;;;;;10.70;99.90;98195.22;5072492;28;20196;-62
2022/11/23 03:01:28;;;;;;;15.73;12.07;;;;;;;10.79;99.83;98196.50;5071979;28;20312;-64
2022/11/23 03:03:55;;;;;;;14.13;12.33;;;;;;;10.88;99.47;98194.31;5071574;28;20207;-62
2022/11/23 03:06:21;;;;;;;12.83;11.43;;;;;;;10.91;99.03;98193.88;5078104;28;20735;-62
2022/11/23 03:08:48;;;;;;;10.87;9.17;;;;;;;10.84;97.95;98209.91;5095593;28;20305;-62
2022/11/23 03:11:15;;;;;;;11.43;10.27;;;;;;;10.62;96.82;98213.34;5095640;28;20187;-62
2022/11/23 03:13:41;;;;;;;14.80;10.27;;;;;;;10.44;97.11;98184.19;5095864;28;20191;-62
2022/11/23 03:16:08;;;;;;;11.43;10.23;;;;;;;10.46;98.06;98176.81;5095567;28;20253;-62
2022/11/23 03:18:36;;;;;;;12.30;9.50;;;;;;;10.58;98.23;98175.00;5096430;28;20227;-62
2022/11/23 03:21:04;;;;;;;10.90;9.80;;;;;;;10.65;98.22;98173.84;5095824;28;20191;-61
2022/11/23 03:23:31;;;;;;;10.57;9.47;;;;;;;10.73;97.32;98176.19;5095706;28;20253;-61
2022/11/23 03:25:58;;;;;;;13.60;9.00;;;;;;;10.79;97.62;98177.13;5095425;28;20622;-61
2022/11/23 03:28:25;;;;;;;10.93;9.70;;;;;;;10.84;97.64;98158.63;5095307;28;20224;-62
2022/11/23 03:30:52;;;;;;;10.50;9.50;;;;;;;10.95;97.33;98155.19;5079867;28;20648;-62
2022/11/23 03:33:19;;;;;;;10.83;9.63;;;;;;;10.98;96.86;98155.53;5075218;28;20518;-61
2022/11/23 03:35:47;;;;;;;10.60;9.43;;;;;;;10.97;97.26;98158.41;5075201;28;20188;-62
2022/11/23 03:38:14;;;;;;;12.83;10.00;;;;;;;11.06;96.95;98162.31;5075031;28;20253;-61
2022/11/23 03:40:41;;;;;;;11.20;9.83;;;;;;;11.11;96.54;98169.63;5074809;28;20672;-61
2022/11/23 03:43:08;;;;;;;9.60;8.80;;;;;;;11.07;95.91;98163.16;5074987;28;20257;-62
2022/11/23 03:45:34;;;;;;;9.77;8.87;;;;;;;10.96;95.88;98170.88;5074792;28;20197;-62
2022/11/23 03:48:01;;;;;;;10.60;9.43;;;;;;;11.01;96.59;98175.50;5074526;28;20277;-62
2022/11/23 03:50:28;;;;;;;11.07;9.77;;;;;;;11.03;96.29;98182.19;5075564;28;20546;-62
2022/11/23 03:52:58;;;;;;;10.33;9.40;;;;;;;11.07;96.27;98188.66;5074556;28;20232;-62
2022/11/23 03:55:25;;;;;;;9.70;8.70;;;;;;;11.04;96.14;98183.81;5075428;28;20192;-61
2022/11/23 03:57:53;;;;;;;12.13;10.10;;;;;;;11.04;95.95;98185.69;5074575;28;20256;-61
2022/11/23 04:00:20;;;;;;;9.30;8.60;;;;;;;10.97;95.43;98192.94;5074485;28;20675;-62
2022/11/23 04:02:47;;;;;;;10.53;9.47;;;;;;;10.89;95.35;98193.28;5074679;28;20188;-62
2022/11/23 04:05:14;;;;;;;9.37;8.47;;;;;;;10.76;95.33;98196.16;5075539;28;20353;-62
2022/11/23 04:07:40;;;;;;;11.27;10.27;;;;;;;10.72;95.91;98198.47;5090394;28;20217;-62
2022/11/23 04:10:09;;;;;;;10.63;9.00;;;;;;;10.65;96.00;98207.56;5094843;28;20248;-62
2022/11/23 04:12:36;;;;;;;9.97;9.03;;;;;;;10.57;96.02;98215.84;5094731;28;20230;-62
2022/11/23 04:15:03;;;;;;;10.47;9.33;;;;;;;10.55;96.63;98210.75;5094468;28;20195;-61
2022/11/23 04:17:29;;;;;;;9.60;8.77;;;;;;;10.63;96.69;98196.38;5093388;28;20764;-61
2022/11/23 04:19:56;;;;;;;9.87;8.87;;;;;;;10.67;96.34;98189.56;5094709;28;20195;-61
2022/11/23 04:22:23;;;;;;;8.90;8.10;;;;;;;10.69;96.23;98192.78;5094579;28;20195;-63
2022/11/23 04:24:49;;;;;;;10.10;9.20;;;;;;;10.68;95.69;98183.19;5094659;28;20191;-62
2022/11/23 04:27:18;;;;;;;9.37;8.53;;;;;;;10.79;95.92;98171.81;5094829;28;20253;-61
2022/11/23 04:29:44;;;;;;;9.80;8.80;;;;;;;10.74;95.38;98185.75;5088030;28;20712;-61
2022/11/23 04:32:11;;;;;;;9.30;8.57;;;;;;;10.67;94.99;98178.94;5073711;28;20301;-62
2022/11/23 04:34:38;;;;;;;9.50;8.60;;;;;;;10.53;95.55;98177.50;5074061;28;20252;-62
2022/11/23 04:37:04;;;;;;;8.30;7.60;;;;;;;10.48;95.47;98183.53;5073811;28;20253;-63
2022/11/23 04:39:31;;;;;;;9.70;8.53;;;;;;;10.39;96.70;98184.06;5073599;28;20683;-63
2022/11/23 04:41:58;;;;;;;9.07;8.17;;;;;;;10.40;97.56;98183.03;5080026;28;20272;-63
2022/11/23 04:44:26;;;;;;;9.23;8.43;;;;;;;10.51;96.70;98190.22;5094091;28;20252;-63
2022/11/23 04:46:53;;;;;;;9.87;8.90;;;;;;;10.43;96.93;98178.09;5094079;28;20196;-66
2022/11/23 04:49:19;;;;;;;8.57;7.77;;;;;;;10.36;96.27;98192.47;5093847;28;20274;-66
2022/11/23 04:51:46;;;;;;;11.53;8.43;;;;;;;10.22;97.27;98191.06;5094324;28;20195;-66
2022/11/23 04:54:13;;;;;;;9.93;7.97;;;;;;;10.23;97.57;98196.13;5094168;28;20224;-65
2022/11/23 04:56:39;;;;;;;9.07;8.30;;;;;;;10.20;98.25;98187.78;5093653;28;20244;-65
2022/11/23 04:59:06;;;;;;;8.10;7.47;;;;;;;10.16;98.03;98189.28;5093440;28;20662;-65
2022/11/23 05:01:34;;;;;;;9.17;8.20;;;;;;;10.24;97.78;98187.13;5093496;28;20199;-64
2022/11/23 05:04:01;;;;;;;8.53;7.83;;;;;;;10.59;100.00;98181.94;5093901;28;20252;-66
2022/11/23 05:06:27;;;;;;;12.17;8.40;;;;;;;10.65;99.20;98191.63;5088353;28;20199;-65
2022/11/23 05:08:54;;;;;;;8.20;7.53;;;;;;;10.66;96.68;98195.91;5072963;28;20278;-65
2022/11/23 05:11:21;;;;;;;7.93;7.13;;;;;;;10.70;96.54;98194.38;5073045;28;20325;-64
2022/11/23 05:13:47;;;;;;;8.10;7.40;;;;;;;10.83;96.00;98188.91;5072984;28;20618;-64
2022/11/23 05:16:14;;;;;;;15.17;8.47;;;;;;;10.84;95.40;98191.31;5074429;28;20192;-64
2022/11/23 05:18:42;;;;;;;11.57;8.53;;;;;;;10.83;95.60;98183.59;5073224;28;20353;-64
2022/11/23 05:21:09;;;;;;;11.47;8.47;;;;;;;10.77;95.15;98177.34;5073711;28;20226;-64
2022/11/23 05:23:35;;;;;;;6.80;6.20;;;;;;;10.77;95.24;98174.69;5073091;28;20246;-63
2022/11/23 05:26:02;;;;;;;10.40;7.77;;;;;;;10.70;95.63;98178.47;5072728;28;20656;-64
2022/11/23 05:28:29;;;;;;;7.63;7.00;;;;;;;10.68;95.77;98172.59;5072745;28;20224;-64
2022/11/23 05:30:55;;;;;;;7.47;6.73;;;;;;;10.67;95.58;98169.09;5088602;28;20249;-64
2022/11/23 05:33:22;;;;;;;6.90;6.23;;;;;;;10.78;95.82;98196.72;5092699;28;20195;-64
2022/11/23 05:35:50;;;;;;;7.00;6.50;;;;;;;10.71;95.92;98201.34;5092648;28;20195;-65
2022/11/23 05:38:17;;;;;;;7.03;6.40;;;;;;;10.74;96.25;98184.94;5092606;28;20662;-65
2022/11/23 05:40:45;;;;;;;7.40;6.80;;;;;;;10.83;96.65;98184.38;5094057;28;20199;-64
2022/11/23 05:43:12;;;;;;;7.67;6.97;;;;;;;10.81;96.00;98186.47;5092609;28;20545;-64
2022/11/23 05:45:39;;;;;;;7.47;6.10;;;;;;;10.88;96.26;98175.72;5093087;28;20189;-65
2022/11/23 05:48:06;;;;;;;8.10;6.47;;;;;;;10.88;96.31;98173.06;5092875;28;20196;-65
2022/11/23 05:50:33;;;;;;;7.93;6.97;;;;;;;10.96;96.08;98167.41;5092641;28;20227;-65
2022/11/23 05:53:01;;;;;;;7.63;6.80;;;;;;;11.01;96.02;98170.19;5092737;28;20241;-64
2022/11/23 05:55:28;;;;;;;7.07;6.47;;;;;;;11.16;95.91;98183.84;5092123;28;20660;-65
2022/11/23 05:57:54;;;;;;;11.23;6.93;;;;;;;11.29;95.39;98178.28;5093170;28;20207;-65
2022/11/23 06:00:22;;;;;;;7.43;6.80;;;;;;;11.33;94.98;98162.66;5092513;28;20254;-65
2022/11/23 06:02:48;;;;;;;10.80;9.30;;;;;;;11.41;94.46;98165.78;5092270;28;20734;-64
2022/11/23 06:05:15;;;;;;;7.67;6.70;;;;;;;11.46;94.18;98155.25;5092370;28;20192;-65
2022/11/23 06:07:42;;;;;;;7.53;6.80;;;;;;;11.60;94.27;98169.91;5076461;28;20688;-65
2022/11/23 06:10:12;;;;;;;7.37;6.63;;;;;;;11.72;94.17;98170.72;5072105;28;20351;-65
2022/11/23 06:12:38;;;;;;;11.57;7.37;;;;;;;11.85;93.42;98167.81;5071952;28;20751;-65
2022/11/23 06:15:06;;;;;;;11.53;8.23;;;;;;;11.87;92.68;98165.69;5072333;28;20197;-65
2022/11/23 06:17:33;;;;;;;9.00;8.10;;;;;;;11.84;92.62;98160.84;5072231;28;20283;-65
2022/11/23 06:20:00;;;;;;;8.90;8.20;;;;;;;11.91;93.02;98182.81;5071868;28;20256;-65
2022/11/23 06:22:26;;;;;;;8.30;7.50;;;;;;;12.02;92.63;98200.59;5071951;28;20198;-63
2022/11/23 06:24:53;;;;;;;8.93;8.07;;;;;;;12.08;92.24;98196.19;5071827;28;20673;-63
2022/11/23 06:27:21;;;;;;;8.93;7.70;;;;;;;12.10;92.08;98197.56;5072282;28;20553;-64
2022/11/23 06:29:48;;;;;;;9.43;7.87;;;;;;;12.14;92.13;98182.75;5077877;28;20704;-63
2022/11/23 06:32:15;;;;;;;13.77;7.77;;;;;;;12.16;91.85;98193.94;5092177;28;20266;-63
2022/11/23 06:34:41;;;;;;;10.77;8.00;;;;;;;12.18;91.91;98205.19;5092049;28;20223;-63
2022/11/23 06:37:08;;;;;;;13.10;7.90;;;;;;;12.17;91.59;98208.06;5091833;28;20193;-63
2022/11/23 06:39:35;;;;;;;8.97;8.07;;;;;;;12.17;92.12;98214.19;5091648;28;20622;-63
2022/11/23 06:42:02;;;;;;;9.20;8.27;;;;;;;12.20;91.97;98208.41;5097701;28;20192;-63
2022/11/23 06:44:30;;;;;;;10.00;8.60;;;;;;;12.25;92.00;98216.47;5098987;28;20299;-63
2022/11/23 06:46:56;;;;;;;10.07;8.57;;;;;;;12.36;91.71;98225.44;5098394;28;20233;-63
2022/11/23 06:49:24;;;;;;;13.97;9.90;;;;;;;12.37;91.58;98222.56;5098257;28;20806;-64
2022/11/23 06:51:51;;;;;;;8.97;8.13;;;;;;;12.39;91.44;98212.50;5099472;28;20196;-64
2022/11/23 06:54:18;;;;;;;8.93;8.20;;;;;;;12.45;91.09;98213.41;5098841;28;20258;-64
2022/11/23 06:56:45;;;;;;;9.10;8.30;;;;;;;12.41;90.58;98215.72;5098671;28;20254;-63
2022/11/23 06:59:12;;;;;;;8.80;7.90;;;;;;;12.48;91.28;98205.72;5098261;28;20279;-63
2022/11/23 07:01:40;;;;;;;9.07;8.17;;;;;;;12.58;91.12;98211.22;5098486;28;20193;-62
2022/11/23 07:04:07;;;;;;;11.73;8.20;;;;;;;12.65;90.21;98216.38;5098292;28;20665;-63
2022/11/23 07:06:33;;;;;;;13.00;8.13;;;;;;;12.57;90.25;98214.94;5091956;28;20586;-62
2022/11/23 07:09:01;;;;;;;11.00;8.73;;;;;;;12.35;90.75;98199.88;5078291;28;20222;-64
2022/11/23 07:11:28;;;;;;;9.50;8.60;;;;;;;12.39;91.73;98201.03;5076585;28;20207;-64
2022/11/23 07:13:55;;;;;;;13.77;9.57;;;;;;;12.38;91.49;98215.38;5097381;28;20762;-63
2022/11/23 07:16:21;;;;;;;12.37;10.07;;;;;;;12.36;92.11;98218.28;5097881;28;20623;-66
2022/11/23 07:18:49;;;;;;;10.87;9.77;;;;;;;12.35;92.18;98211.34;5079935;28;20334;-65
2022/11/23 07:21:16;;;;;;;12.80;10.47;;;;;;;12.53;92.32;98207.69;5091537;28;20190;-64
2022/11/23 07:23:43;;;;;;;16.53;9.57;;;;;;;12.63;92.28;98222.00;5098635;28;20194;-63
2022/11/23 07:26:10;;;;;;;13.40;9.57;;;;;;;12.63;91.80;98224.66;5097879;28;20216;-73
2022/11/23 07:28:38;;;;;;;11.13;9.00;;;;;;;12.84;92.19;98225.78;5089650;28;20191;-73
2022/11/23 07:31:04;;;;;;;12.00;9.47;;;;;;;13.09;90.84;98234.22;5098174;28;20194;-72
2022/11/23 07:33:31;;;;;;;14.53;10.70;;;;;;;13.25;91.19;98231.56;5098374;28;20240;-72
2022/11/23 07:36:02;;;;;;;14.77;9.90;;;;;;;13.42;89.92;98240.38;5097888;28;20201;-71
2022/11/23 07:38:29;;;;;;;19.77;10.07;;;;;;;13.45;88.89;98247.06;5098436;28;20183;-73
2022/11/23 07:40:57;;;;;;;13.00;9.63;;;;;;;13.48;88.72;98255.38;5097941;28;20248;-73
2022/11/23 07:43:24;;;;;;;17.37;10.70;;;;;;;13.31;89.19;98251.91;5098306;28;20202;-74
2022/11/23 07:45:51;;;;;;;13.23;10.50;;;;;;;13.35;90.44;98261.06;5097652;28;20186;-78
2022/11/23 07:48:18;;;;;;;12.70;10.53;;;;;;;13.49;89.94;98258.88;5098217;28;20236;-73
2022/11/23 07:50:44;;;;;;;15.87;10.77;;;;;;;13.45;90.45;98242.56;5097719;28;20314;-73
2022/11/23 07:53:12;;;;;;;19.97;11.43;;;;;;;13.54;90.11;98243.75;5095646;28;20198;-80
2022/11/23 07:55:39;;;;;;;14.97;12.40;;;;;;;13.66;89.85;98249.78;5095043;28;20191;-73
2022/11/23 07:58:06;;;;;;;18.03;11.07;;;;;;;13.76;89.27;98268.59;5094941;28;20552;-68
2022/11/23 08:00:32;;;;;;;18.00;12.23;;;;;;;13.63;88.96;98258.28;5092456;28;20282;-70
2022/11/23 08:02:59;;;;;;;16.53;11.60;;;;;;;13.70;90.25;98244.75;5074661;28;20194;-74
2022/11/23 08:05:26;;;;;;;20.17;12.17;;;;;;;13.63;89.79;98260.13;5073941;28;20754;-72
2022/11/23 08:07:58;;;;;;;17.17;11.03;;;;;;;13.61;90.74;98254.25;5091268;28;20712;-72
2022/11/23 08:10:26;;;;;;;16.40;11.67;;;;;;;13.63;90.64;98258.28;5094207;28;20275;-69
2022/11/23 08:12:53;;;;;;;12.03;10.27;;;;;;;13.36;91.02;98268.00;5094269;28;20227;-73
2022/11/23 08:15:20;;;;;;;13.70;10.63;;;;;;;13.39;90.89;98267.50;5094130;28;20213;-68
2022/11/23 08:17:46;;;;;;;15.77;10.87;;;;;;;13.41;91.56;98269.94;5094852;28;20284;-72
2022/11/23 08:20:13;;;;;;;13.53;11.87;;;;;;;13.45;91.98;98258.56;5093874;28;20311;-69
2022/11/23 08:22:40;;;;;;;13.33;11.10;;;;;;;13.65;92.70;98272.19;5094566;28;20252;-68
2022/11/23 08:25:08;;;;;;;13.07;11.73;;;;;;;13.66;91.17;98273.81;5094416;28;20193;-68
2022/11/23 08:27:36;;;;;;;11.47;10.20;;;;;;;13.71;90.92;98255.19;5094664;28;20224;-71
2022/11/23 08:30:02;;;;;;;13.70;11.23;;;;;;;13.58;90.98;98270.72;5093916;28;20640;-72
2022/11/23 08:32:29;;;;;;;11.03;9.80;;;;;;;13.53;91.24;98263.47;5093982;28;20195;-73
2022/11/23 08:34:56;;;;;;;12.60;10.67;;;;;;;13.39;92.26;98272.06;5094819;28;20299;-71
2022/11/23 08:37:22;;;;;;;20.33;10.70;;;;;;;13.51;92.26;98270.09;5094094;28;20255;-71
2022/11/23 08:39:49;;;;;;;13.23;10.53;;;;;;;13.41;92.26;98260.09;5093863;28;20199;-71
2022/11/23 08:42:16;;;;;;;14.70;10.80;;;;;;;13.39;91.95;98262.19;5094034;28;20259;-70
2022/11/23 08:44:44;;;;;;;16.27;10.80;;;;;;;13.42;92.03;98259.03;5093388;28;20188;-76
2022/11/23 08:47:10;;;;;;;15.87;9.87;;;;;;;13.61;93.43;98257.72;5093520;28;20245;-73
2022/11/23 08:49:37;;;;;;;10.43;9.37;;;;;;;13.82;92.74;98250.78;5082575;28;20293;-77
2022/11/23 08:52:04;;;;;;;10.57;9.47;;;;;;;13.84;89.81;98254.84;5073539;28;20191;-77
2022/11/23 08:54:31;;;;;;;16.73;12.67;;;;;;;14.13;89.55;98258.16;5073195;28;20192;-75
2022/11/23 08:56:58;;;;;;;11.90;10.70;;;;;;;14.51;93.72;98250.06;5071364;28;20695;-69
2022/11/23 08:59:25;;;;;;;17.40;13.13;;;;;;;14.83;88.60;98246.38;5072523;28;20196;-78
2022/11/23 09:01:53;;;;;;;20.17;14.90;;;;;;;15.08;85.02;98240.47;5073060;28;20250;-73
2022/11/23 09:04:19;;;;;;;17.43;13.30;;;;;;;15.10;84.98;98247.16;5073032;28;20196;-71
2022/11/23 09:06:46;;;;;;;19.50;12.03;;;;;;;15.02;84.21;98242.28;5072687;28;20737;-73
2022/11/23 09:09:13;;;;;;;16.37;13.30;;;;;;;14.81;84.72;98227.13;5073216;28;20583;-69
2022/11/23 09:11:39;;;;;;;18.10;12.33;;;;;;;14.81;84.28;98224.44;5072879;28;20196;-68
2022/11/23 09:14:06;;;;;;;15.33;12.13;;;;;;;14.86;85.41;98229.84;5081406;28;20256;-69
2022/11/23 09:16:33;;;;;;;16.83;12.83;;;;;;;14.82;84.97;98231.41;5093302;28;20252;-68
2022/11/23 09:19:01;;;;;;;14.90;11.23;;;;;;;14.89;84.58;98225.84;5093766;28;20230;-70
2022/11/23 09:21:32;;;;;;;11.80;10.50;;;;;;;14.75;84.39;98230.81;5093390;28;20199;-70
2022/11/23 09:23:58;;;;;;;11.70;9.60;;;;;;;14.77;84.39;98220.69;5094018;28;20266;-69
2022/11/23 09:26:25;;;;;;;12.13;10.30;;;;;;;14.66;84.95;98213.63;5092873;28;20187;-69
2022/11/23 09:28:52;;;;;;;11.97;10.30;;;;;;;14.92;85.44;98204.78;5092692;28;20269;-70
2022/11/23 09:31:19;;;;;;;12.87;10.47;;;;;;;15.05;84.47;98207.03;5073838;28;20321;-69
2022/11/23 09:33:45;;;;;;;11.53;10.20;;;;;;;15.38;83.04;98198.72;5072144;28;20858;-68
2022/11/23 09:36:13;;;;;;;16.17;10.63;;;;;;;15.48;82.33;98192.63;5071885;28;20192;-66
2022/11/23 09:38:40;;;;;;;15.63;10.73;;;;;;;15.72;81.92;98189.28;5072832;28;20192;-68
2022/11/23 09:41:22;;;;;;;13.97;10.23;;;;;;;15.97;80.59;98188.59;5072255;28;20265;-68
2022/11/23 09:43:57;;;;;;;8.43;7.80;;;;;;;16.02;79.81;98189.41;5072913;28;20265;-68
2022/11/23 09:46:37;;;;;;;10.73;9.70;;;;;;;15.88;79.49;98178.66;5072496;28;20659;-69
2022/11/23 09:49:13;;;;;;;10.63;9.60;;;;;;;16.06;80.21;98194.25;5091928;28;20626;-68
2022/11/23 09:51:43;;;;;;;12.53;9.70;;;;;;;16.29;79.60;98189.22;5072350;28;20223;-68
2022/11/23 09:54:22;;;;;;;13.53;10.27;;;;;;;16.26;79.54;98188.94;5072459;28;20192;-68
2022/11/23 09:56:50;;;;;;;17.27;9.80;;;;;;;16.28;78.54;98189.47;5073334;28;20188;-67
2022/11/23 09:59:28;;;;;;;10.93;9.93;;;;;;;16.06;78.90;98188.88;5071874;28;20307;-68
2022/11/23 10:01:54;;;;;;;12.73;10.33;;;;;;;16.03;79.55;98182.19;5071784;28;20187;-67
2022/11/23 10:04:22;;;;;;;12.47;10.43;;;;;;;15.94;80.05;98176.50;5072865;28;20249;-69
2022/11/23 10:06:56;;;;;;;14.40;9.43;;;;;;;16.08;80.51;98184.09;5072351;28;20250;-69
2022/11/23 10:09:36;;;;;;;9.67;8.70;;;;;;;16.11;79.66;98175.50;5071943;28;20180;-66
2022/11/23 10:12:26;;;;;;;12.00;10.17;;;;;;;15.96;79.84;98156.72;5072121;28;20192;-69
2022/11/23 10:15:09;;;;;;;16.67;11.10;;;;;;;16.05;80.12;98165.84;5101753;28;20218;-71
2022/11/23 10:17:52;;;;;;;13.70;11.07;;;;;;;15.96;79.45;98162.06;5112912;28;20290;-69
2022/11/23 10:20:49;;;;;;;10.80;9.83;;;;;;;15.92;80.34;98166.34;5105060;28;20187;-69
2022/11/23 10:23:31;;;;;;;17.10;10.33;;;;;;;15.88;81.02;98161.50;5091842;28;20199;-71
2022/11/23 10:25:59;;;;;;;31.60;10.87;;;;;;;15.92;80.93;98161.00;5091915;28;20218;-71
2022/11/23 10:28:30;;;;;;;14.70;10.93;;;;;;;16.02;80.13;98161.81;5092139;28;20188;-71
2022/11/23 10:31:13;;;;;;;12.93;10.53;;;;;;;16.20;80.04;98168.59;5076016;28;20744;-70
2022/11/23 10:33:50;;;;;;;12.33;11.03;;;;;;;16.38;79.64;98158.19;5071691;28;20191;-67
2022/11/23 10:36:17;;;;;;;13.30;11.77;;;;;;;16.60;78.00;98171.34;5072382;28;20183;-71
2022/11/23 10:38:49;;;;;;;12.17;10.83;;;;;;;16.78;78.24;98178.91;5071537;28;20249;-68
2022/11/23 10:41:16;;;;;;;11.30;9.60;;;;;;;16.91;77.34;98173.78;5071965;28;20261;-69
2022/11/23 10:43:51;;;;;;;11.67;9.00;;;;;;;17.15;76.33;98179.44;5071740;28;20192;-70
2022/11/23 10:46:39;;;;;;;10.53;9.47;;;;;;;17.36;75.01;98186.38;5072110;28;20611;-68
2022/11/23 10:49:16;;;;;;;10.87;9.77;;;;;;;17.22;75.11;98174.56;5065688;28;20200;-70
2022/11/23 10:51:50;;;;;;;12.00;9.37;;;;;;;17.01;74.89;98175.66;5080419;28;20211;-69
2022/11/23 10:54:23;;;;;;;19.00;8.97;;;;;;;17.13;75.42;98163.59;5091793;28;20230;-69
2022/11/23 10:56:52;;;;;;;10.23;8.70;;;;;;;17.22;74.80;98155.78;5092145;28;20195;-70
2022/11/23 10:59:37;;;;;;;11.53;10.13;;;;;;;17.32;74.83;98155.78;5091977;28;20260;-69
2022/11/23 11:02:19;;;;;;;9.83;8.83;;;;;;;17.45;74.67;98166.81;5091235;28;20231;-67
2022/11/23 11:04:48;;;;;;;11.23;8.30;;;;;;;17.56;74.68;98167.56;5091917;28;20198;-69
2022/11/23 11:07:22;;;;;;;10.80;9.70;;;;;;;17.61;73.93;98180.97;5079309;28;20663;-67
2022/11/23 11:09:52;;;;;;;9.27;8.37;;;;;;;17.42;75.64;98169.19;5072103;28;20189;-69
2022/11/23 11:12:19;;;;;;;57.37;22.23;;;;;;;17.21;75.16;98170.28;5071368;28;20693;-69
2022/11/23 11:14:57;;;;;;;23.53;10.10;;;;;;;17.16;74.98;98178.34;5099173;28;20271;-68
2022/11/23 11:17:29;;;;;;;15.03;9.20;;;;;;;17.09;75.42;98173.25;5112943;28;20261;-67
2022/11/23 11:19:56;;;;;;;13.83;9.47;;;;;;;16.90;75.31;98169.50;5106847;28;20797;-67
2022/11/23 11:22:32;;;;;;;12.30;8.77;;;;;;;16.62;76.57;98161.19;5091833;28;20631;-68
2022/11/23 11:25:01;;;;;;;10.63;8.80;;;;;;;16.65;77.30;98149.94;5090319;28;20700;-67
2022/11/23 11:27:30;;;;;;;8.80;8.13;;;;;;;16.73;78.11;98147.50;5092332;28;20283;-68